Time,TemperatureF,DewpointF,PressureIn,WindDirection,WindDirectionDegrees,WindSpeedMPH,WindSpeedGustMPH,Humidity,HourlyPrecipIn,Conditions,Clouds,dailyrainin,SoftwareType,DateUTC
2013-10-26 00:11:00,36.0,28.0,-100.00,West,280,1.0,4.0,73,-99.99,,,-99.99,,2013-10-26 08:11:00,
2013-10-26 00:22:00,36.0,28.0,-100.00,West,280,1.0,4.0,73,-99.99,,,-99.99,,2013-10-26 08:22:00,
2013-10-26 00:42:00,36.0,29.0,-100.00,SE,131,0.0,2.0,74,0.00,,,-99.99,,2013-10-26 08:42:00,
2013-10-26 00:52:00,36.0,29.0,-100.00,SE,131,0.0,2.0,74,0.00,,,-99.99,,2013-10-26 08:52:00,
2013-10-26 01:02:00,36.0,29.0,-100.00,SE,131,0.0,2.0,74,0.00,,,-99.99,,2013-10-26 09:02:00,
2013-10-26 01:22:00,36.0,28.0,-100.00,NE,51,2.0,3.0,73,-99.99,,,-99.99,,2013-10-26 09:22:00,
2013-10-26 01:43:00,36.0,28.0,-100.00,NNE,24,0.0,0.0,73,0.00,,,-99.99,,2013-10-26 09:43:00,
2013-10-26 01:53:00,36.0,28.0,-100.00,NNE,24,0.0,0.0,73,0.00,,,-99.99,,2013-10-26 09:53:00,
2013-10-26 02:03:00,36.0,28.0,-100.00,NNE,24,0.0,0.0,73,0.00,,,-99.99,,2013-10-26 10:03:00,
2013-10-26 02:42:00,35.0,29.0,-100.00,SW,221,2.0,3.0,79,0.00,,,-99.99,,2013-10-26 10:42:00,
2013-10-26 02:53:00,35.0,29.0,-100.00,SW,221,2.0,3.0,79,0.00,,,-99.99,,2013-10-26 10:53:00,
2013-10-26 03:03:00,35.0,29.0,-100.00,SW,221,2.0,3.0,79,0.00,,,-99.99,,2013-10-26 11:03:00,
2013-10-26 03:52:00,35.0,29.0,-100.00,ENE,78,6.0,11.0,79,-99.99,,,-99.99,,2013-10-26 11:52:00,
2013-10-26 04:12:00,35.0,29.0,-100.00,ENE,66,4.0,10.0,79,-99.99,,,-99.99,,2013-10-26 12:12:00,
2013-10-26 04:21:00,35.0,29.0,-100.00,WSW,252,1.0,5.0,77,-99.99,,,-99.99,,2013-10-26 12:21:00,
2013-10-26 04:31:00,35.0,29.0,-100.00,WSW,252,1.0,5.0,77,-99.99,,,-99.99,,2013-10-26 12:31:00,
2013-10-26 04:42:00,35.0,29.0,-100.00,WSW,252,1.0,5.0,77,-99.99,,,-99.99,,2013-10-26 12:42:00,
2013-10-26 04:52:00,34.0,29.0,-100.00,SW,216,1.0,3.0,82,-99.99,,,-99.99,,2013-10-26 12:52:00,
2013-10-26 05:11:00,34.0,29.0,-100.00,SW,216,1.0,3.0,82,-99.99,,,-99.99,,2013-10-26 13:11:00,
2013-10-26 05:21:00,34.0,29.0,-100.00,SSE,149,0.0,2.0,83,-99.99,,,-99.99,,2013-10-26 13:21:00,
2013-10-26 05:32:00,34.0,29.0,-100.00,SSE,149,0.0,2.0,83,-99.99,,,-99.99,,2013-10-26 13:32:00,
2013-10-26 05:42:00,34.0,29.0,-100.00,SSE,149,0.0,2.0,83,-99.99,,,-99.99,,2013-10-26 13:42:00,
2013-10-26 06:11:00,33.0,29.0,-100.00,NE,40,0.0,2.0,84,-99.99,,,-99.99,,2013-10-26 14:11:00,
2013-10-26 06:21:00,33.0,29.0,-100.00,NE,40,0.0,2.0,84,-99.99,,,-99.99,,2013-10-26 14:21:00,
2013-10-26 06:42:00,32.0,28.0,-100.00,NE,48,2.0,4.0,85,0.00,,,-99.99,,2013-10-26 14:42:00,
2013-10-26 06:52:00,32.0,28.0,-100.00,NE,48,2.0,4.0,85,0.00,,,-99.99,,2013-10-26 14:52:00,
2013-10-26 07:12:00,32.0,28.0,-100.00,NE,48,3.0,6.0,85,-99.99,,,-99.99,,2013-10-26 15:12:00,
2013-10-26 07:23:00,32.0,28.0,-100.00,NE,54,6.0,11.0,85,-99.99,,,-99.99,,2013-10-26 15:23:00,
2013-10-26 07:44:00,34.0,28.0,-100.00,NE,50,4.0,10.0,80,0.00,,,-99.99,,2013-10-26 15:44:00,
2013-10-26 07:55:00,34.0,28.0,-100.00,ENE,61,0.0,5.0,77,-99.99,,,-99.99,,2013-10-26 15:55:00,
2013-10-26 08:14:00,33.0,27.0,-100.00,South,186,1.0,4.0,78,-99.99,,,-99.99,,2013-10-26 16:14:00,
2013-10-26 08:24:00,34.0,28.0,-100.00,SE,145,2.0,4.0,78,-99.99,,,-99.99,,2013-10-26 16:24:00,
2013-10-26 08:44:00,34.0,28.0,-100.00,SW,222,0.0,3.0,79,0.00,,,-99.99,,2013-10-26 16:44:00,
2013-10-26 08:53:00,34.0,28.0,-100.00,WSW,244,0.0,2.0,79,-99.99,,,-99.99,,2013-10-26 16:53:00,
2013-10-26 09:12:00,34.0,28.0,-100.00,SE,124,0.0,1.0,80,-99.99,,,-99.99,,2013-10-26 17:12:00,
2013-10-26 09:23:00,34.0,28.0,-100.00,SE,125,0.0,0.0,80,-99.99,,,-99.99,,2013-10-26 17:23:00,
2013-10-26 09:34:00,34.0,28.0,-100.00,SE,125,0.0,0.0,80,-99.99,,,-99.99,,2013-10-26 17:34:00,
2013-10-26 09:43:00,34.0,28.0,-100.00,SE,125,0.0,0.0,80,-99.99,,,-99.99,,2013-10-26 17:43:00,
2013-10-26 09:52:00,33.0,28.0,-100.00,SSE,149,2.0,3.0,80,-99.99,,,-99.99,,2013-10-26 17:52:00,
2013-10-26 10:02:00,33.0,28.0,-100.00,SSE,149,2.0,3.0,80,-99.99,,,-99.99,,2013-10-26 18:02:00,
2013-10-26 10:12:00,33.0,28.0,-100.00,SSE,149,2.0,3.0,80,-99.99,,,-99.99,,2013-10-26 18:12:00,
2013-10-26 10:21:00,33.0,28.0,-100.00,ENE,78,0.0,5.0,81,-99.99,,,-99.99,,2013-10-26 18:21:00,
2013-10-26 10:42:00,35.0,29.0,-100.00,SSE,159,1.0,2.0,77,0.00,,,-99.99,,2013-10-26 18:42:00,
2013-10-26 10:52:00,35.0,29.0,-100.00,SSE,159,1.0,2.0,77,0.00,,,-99.99,,2013-10-26 18:52:00,
2013-10-26 11:12:00,35.0,28.0,-100.00,East,80,9.0,13.0,75,-99.99,,,-99.99,,2013-10-26 19:12:00,
2013-10-26 11:22:00,35.0,28.0,-100.00,East,80,9.0,13.0,75,-99.99,,,-99.99,,2013-10-26 19:22:00,
2013-10-26 11:42:00,35.0,27.0,-100.00,ESE,116,2.0,11.0,71,0.00,,,-99.99,,2013-10-26 19:42:00,
2013-10-26 11:52:00,35.0,27.0,-100.00,ESE,116,2.0,11.0,71,0.00,,,-99.99,,2013-10-26 19:52:00,
2013-10-26 12:02:00,35.0,27.0,-100.00,ESE,116,2.0,11.0,71,0.00,,,-99.99,,2013-10-26 20:02:00,
2013-10-26 12:43:00,39.0,28.0,-100.00,NE,54,3.0,3.0,64,0.00,,,-99.99,,2013-10-26 20:43:00,
2013-10-26 12:52:00,38.0,27.0,-100.00,East,83,3.0,5.0,65,-99.99,,,-99.99,,2013-10-26 20:52:00,
2013-10-26 13:02:00,38.0,27.0,-100.00,East,83,3.0,5.0,65,-99.99,,,-99.99,,2013-10-26 21:02:00,
2013-10-26 13:11:00,38.0,27.0,-100.00,East,83,3.0,5.0,65,-99.99,,,-99.99,,2013-10-26 21:11:00,
2013-10-26 13:21:00,37.0,26.0,-100.00,ENE,78,3.0,9.0,64,-99.99,,,-99.99,,2013-10-26 21:21:00,
2013-10-26 13:43:00,37.0,25.0,-100.00,SSW,199,1.0,3.0,61,0.00,,,-99.99,,2013-10-26 21:43:00,
2013-10-26 13:54:00,37.0,25.0,-100.00,SSW,199,1.0,3.0,61,0.00,,,-99.99,,2013-10-26 21:54:00,
2013-10-26 14:13:00,37.0,28.0,-100.00,SW,225,2.0,5.0,70,-99.99,,,-99.99,,2013-10-26 22:13:00,
2013-10-26 14:24:00,37.0,28.0,-100.00,SW,225,2.0,5.0,70,-99.99,,,-99.99,,2013-10-26 22:24:00,
2013-10-26 14:44:00,41.0,29.0,-100.00,SW,231,3.0,6.0,62,0.00,,,-99.99,,2013-10-26 22:44:00,
2013-10-26 14:54:00,41.0,29.0,-100.00,SW,231,3.0,6.0,62,0.00,,,-99.99,,2013-10-26 22:54:00,
2013-10-26 15:03:00,41.0,29.0,-100.00,SW,231,3.0,6.0,62,0.00,,,-99.99,,2013-10-26 23:03:00,
2013-10-26 15:22:00,40.0,29.0,-100.00,West,272,0.0,4.0,65,-99.99,,,-99.99,,2013-10-26 23:22:00,
2013-10-26 15:42:00,42.0,31.0,-100.00,SW,227,1.0,4.0,65,0.00,,,-99.99,,2013-10-26 23:42:00,
2013-10-26 15:52:00,42.0,31.0,-100.00,SW,227,1.0,4.0,65,0.00,,,-99.99,,2013-10-26 23:52:00,
2013-10-26 16:11:00,38.0,31.0,-100.00,SSW,204,2.0,6.0,75,-99.99,,,-99.99,,2013-10-27 00:11:00,
2013-10-26 16:21:00,38.0,31.0,-100.00,SSW,204,2.0,6.0,75,-99.99,,,-99.99,,2013-10-27 00:21:00,
2013-10-26 16:32:00,38.0,31.0,-100.00,SSW,204,2.0,6.0,75,-99.99,,,-99.99,,2013-10-27 00:32:00,
2013-10-26 17:11:00,38.0,29.0,-100.00,NE,52,8.0,11.0,71,-99.99,,,-99.99,,2013-10-27 01:11:00,
2013-10-26 17:22:00,38.0,29.0,-100.00,NE,52,8.0,11.0,71,-99.99,,,-99.99,,2013-10-27 01:22:00,
2013-10-26 17:32:00,38.0,29.0,-100.00,NE,52,8.0,11.0,71,-99.99,,,-99.99,,2013-10-27 01:32:00,
2013-10-26 18:21:00,32.0,32.0,-100.00,SSE,156,2.0,0.0,100,-99.99,,,-99.99,,2013-10-27 02:21:00,
2013-10-26 18:42:00,37.0,29.0,-100.00,SSW,208,1.0,3.0,73,0.00,,,-99.99,,2013-10-27 02:42:00,
2013-10-26 18:52:00,37.0,29.0,-100.00,SSW,208,1.0,3.0,73,0.00,,,-99.99,,2013-10-27 02:52:00,
2013-10-26 19:02:00,37.0,29.0,-100.00,SSW,208,1.0,3.0,73,0.00,,,-99.99,,2013-10-27 03:02:00,
2013-10-26 19:21:00,39.0,19.0,-100.00,SSW,196,3.0,11.0,45,-99.99,,,-99.99,,2013-10-27 03:21:00,
2013-10-26 19:22:00,37.0,24.0,-100.00,East,80,0.0,8.0,59,-99.99,,,-99.99,,2013-10-27 03:22:00,
2013-10-26 19:44:00,37.0,22.0,-100.00,SSE,159,2.0,11.0,54,0.00,,,-99.99,,2013-10-27 03:44:00,
2013-10-26 19:54:00,39.0,19.0,-100.00,SSW,196,3.0,11.0,45,-99.99,,,-99.99,,2013-10-27 03:54:00,
2013-10-26 20:02:00,-999.0,-99.9,-100.00,SSW,196,3.0,11.0,-999,-99.99,,,-99.99,,2013-10-27 04:02:00,
2013-10-26 20:13:00,39.0,19.0,-100.00,SSW,196,3.0,11.0,45,-99.99,,,-99.99,,2013-10-27 04:13:00,
2013-10-26 20:44:00,39.0,25.0,-100.00,East,88,1.0,11.0,57,0.00,,,-99.99,,2013-10-27 04:44:00,
2013-10-26 20:54:00,39.0,25.0,-100.00,East,88,1.0,11.0,57,0.00,,,-99.99,,2013-10-27 04:54:00,
2013-10-26 21:04:00,39.0,25.0,-100.00,East,88,1.0,11.0,57,0.00,,,-99.99,,2013-10-27 05:04:00,